sensor_id;sensor_type;location;lat;lon;timestamp;P1;durP1;ratioP1;P2;durP2;ratioP2
31224;SDS011;17847;31.524;74.366;2022-08-21T00:00:35;31.33;;;15.30;;
31224;SDS011;17847;31.524;74.366;2022-08-21T00:03:42;24.67;;;13.43;;
31224;SDS011;17847;31.524;74.366;2022-08-21T00:06:52;23.75;;;13.82;;
31224;SDS011;17847;31.524;74.366;2022-08-21T00:09:57;24.73;;;13.90;;
31224;SDS011;17847;31.524;74.366;2022-08-21T00:13:12;28.70;;;14.45;;
31224;SDS011;17847;31.524;74.366;2022-08-21T00:16:16;25.00;;;15.27;;
31224;SDS011;17847;31.524;74.366;2022-08-21T00:19:31;24.83;;;14.00;;
31224;SDS011;17847;31.524;74.366;2022-08-21T00:22:27;26.60;;;14.43;;
31224;SDS011;17847;31.524;74.366;2022-08-21T00:25:43;28.50;;;14.38;;
31224;SDS011;17847;31.524;74.366;2022-08-21T00:28:39;30.63;;;14.07;;
31224;SDS011;17847;31.524;74.366;2022-08-21T00:31:57;25.52;;;14.45;;
31224;SDS011;17847;31.524;74.366;2022-08-21T00:34:53;30.63;;;15.50;;
31224;SDS011;17847;31.524;74.366;2022-08-21T00:38:08;25.13;;;14.13;;
31224;SDS011;17847;31.524;74.366;2022-08-21T00:41:06;21.55;;;14.35;;
31224;SDS011;17847;31.524;74.366;2022-08-21T00:44:37;27.90;;;14.57;;
31224;SDS011;17847;31.524;74.366;2022-08-21T00:47:53;26.13;;;14.73;;
31224;SDS011;17847;31.524;74.366;2022-08-21T00:50:58;24.95;;;15.32;;
31224;SDS011;17847;31.524;74.366;2022-08-21T00:54:12;25.60;;;15.05;;
31224;SDS011;17847;31.524;74.366;2022-08-21T00:57:20;23.63;;;14.60;;
31224;SDS011;17847;31.524;74.366;2022-08-21T01:00:35;23.35;;;15.10;;
31224;SDS011;17847;31.524;74.366;2022-08-21T01:03:40;27.20;;;16.38;;
31224;SDS011;17847;31.524;74.366;2022-08-21T01:06:48;24.88;;;15.13;;
31224;SDS011;17847;31.524;74.366;2022-08-21T01:09:52;29.13;;;15.20;;
31224;SDS011;17847;31.524;74.366;2022-08-21T01:13:02;25.33;;;15.00;;
31224;SDS011;17847;31.524;74.366;2022-08-21T01:16:08;27.70;;;14.77;;
31224;SDS011;17847;31.524;74.366;2022-08-21T01:19:17;29.70;;;15.65;;
31224;SDS011;17847;31.524;74.366;2022-08-21T01:22:21;30.67;;;15.30;;
31224;SDS011;17847;31.524;74.366;2022-08-21T01:25:30;31.58;;;17.70;;
31224;SDS011;17847;31.524;74.366;2022-08-21T01:28:35;32.30;;;16.13;;
31224;SDS011;17847;31.524;74.366;2022-08-21T01:31:48;31.08;;;16.40;;
31224;SDS011;17847;31.524;74.366;2022-08-21T01:34:51;29.52;;;16.33;;
31224;SDS011;17847;31.524;74.366;2022-08-21T01:37:54;28.90;;;17.60;;
31224;SDS011;17847;31.524;74.366;2022-08-21T01:41:09;29.42;;;17.30;;
31224;SDS011;17847;31.524;74.366;2022-08-21T01:44:05;36.92;;;19.25;;
31224;SDS011;17847;31.524;74.366;2022-08-21T01:47:22;34.92;;;18.48;;
31224;SDS011;17847;31.524;74.366;2022-08-21T01:50:38;31.63;;;18.30;;
31224;SDS011;17847;31.524;74.366;2022-08-21T01:53:49;35.13;;;17.63;;
31224;SDS011;17847;31.524;74.366;2022-08-21T01:56:58;34.38;;;17.23;;
31224;SDS011;17847;31.524;74.366;2022-08-21T02:00:03;26.40;;;16.23;;
31224;SDS011;17847;31.524;74.366;2022-08-21T02:03:21;29.65;;;18.08;;
31224;SDS011;17847;31.524;74.366;2022-08-21T02:06:28;35.35;;;18.70;;
31224;SDS011;17847;31.524;74.366;2022-08-21T02:09:36;29.90;;;18.85;;
31224;SDS011;17847;31.524;74.366;2022-08-21T02:12:46;44.60;;;23.65;;
31224;SDS011;17847;31.524;74.366;2022-08-21T02:15:48;41.75;;;22.77;;
31224;SDS011;17847;31.524;74.366;2022-08-21T02:18:57;46.03;;;26.38;;
31224;SDS011;17847;31.524;74.366;2022-08-21T02:22:00;44.28;;;24.52;;
31224;SDS011;17847;31.524;74.366;2022-08-21T02:25:08;45.35;;;27.50;;
31224;SDS011;17847;31.524;74.366;2022-08-21T02:28:13;45.55;;;26.88;;
31224;SDS011;17847;31.524;74.366;2022-08-21T02:31:30;43.45;;;25.35;;
31224;SDS011;17847;31.524;74.366;2022-08-21T02:37:50;42.17;;;25.65;;
31224;SDS011;17847;31.524;74.366;2022-08-21T02:40:49;44.70;;;23.65;;
31224;SDS011;17847;31.524;74.366;2022-08-21T02:44:05;42.28;;;24.35;;
31224;SDS011;17847;31.524;74.366;2022-08-21T02:47:01;37.42;;;22.35;;
31224;SDS011;17847;31.524;74.366;2022-08-21T02:50:18;38.05;;;21.52;;
31224;SDS011;17847;31.524;74.366;2022-08-21T02:53:19;38.22;;;22.60;;
31224;SDS011;17847;31.524;74.366;2022-08-21T02:56:35;45.60;;;21.52;;
31224;SDS011;17847;31.524;74.366;2022-08-21T02:59:38;40.70;;;21.85;;
31224;SDS011;17847;31.524;74.366;2022-08-21T03:02:48;40.45;;;20.83;;
31224;SDS011;17847;31.524;74.366;2022-08-21T03:05:51;33.67;;;18.58;;
31224;SDS011;17847;31.524;74.366;2022-08-21T03:09:00;27.08;;;16.85;;
31224;SDS011;17847;31.524;74.366;2022-08-21T03:12:03;30.88;;;15.77;;
31224;SDS011;17847;31.524;74.366;2022-08-21T03:15:14;34.15;;;16.23;;
31224;SDS011;17847;31.524;74.366;2022-08-21T03:18:19;27.15;;;15.27;;
31224;SDS011;17847;31.524;74.366;2022-08-21T03:21:28;38.63;;;16.88;;
31224;SDS011;17847;31.524;74.366;2022-08-21T03:24:31;37.92;;;15.45;;
31224;SDS011;17847;31.524;74.366;2022-08-21T03:27:36;25.98;;;14.35;;
31224;SDS011;17847;31.524;74.366;2022-08-21T03:30:48;28.25;;;13.75;;
31224;SDS011;17847;31.524;74.366;2022-08-21T03:33:45;29.50;;;16.08;;
31224;SDS011;17847;31.524;74.366;2022-08-21T03:37:03;25.63;;;15.27;;
31224;SDS011;17847;31.524;74.366;2022-08-21T03:40:03;30.00;;;16.33;;
31224;SDS011;17847;31.524;74.366;2022-08-21T03:43:20;30.45;;;16.35;;
31224;SDS011;17847;31.524;74.366;2022-08-21T03:46:22;38.42;;;14.85;;
31224;SDS011;17847;31.524;74.366;2022-08-21T03:49:37;25.80;;;12.98;;
31224;SDS011;17847;31.524;74.366;2022-08-21T03:52:41;34.20;;;15.57;;
31224;SDS011;17847;31.524;74.366;2022-08-21T03:55:50;30.30;;;17.70;;
31224;SDS011;17847;31.524;74.366;2022-08-21T03:58:53;36.92;;;18.23;;
31224;SDS011;17847;31.524;74.366;2022-08-21T04:02:04;37.10;;;17.65;;
31224;SDS011;17847;31.524;74.366;2022-08-21T04:05:09;37.03;;;16.85;;
31224;SDS011;17847;31.524;74.366;2022-08-21T04:08:36;50.47;;;20.33;;
31224;SDS011;17847;31.524;74.366;2022-08-21T04:11:39;36.67;;;16.08;;
31224;SDS011;17847;31.524;74.366;2022-08-21T04:14:49;48.17;;;18.60;;
31224;SDS011;17847;31.524;74.366;2022-08-21T04:17:54;36.33;;;17.45;;
31224;SDS011;17847;31.524;74.366;2022-08-21T04:21:02;40.40;;;18.35;;
31224;SDS011;17847;31.524;74.366;2022-08-21T04:24:07;41.35;;;17.52;;
31224;SDS011;17847;31.524;74.366;2022-08-21T04:27:28;37.00;;;18.88;;
31224;SDS011;17847;31.524;74.366;2022-08-21T04:30:24;31.63;;;18.33;;
31224;SDS011;17847;31.524;74.366;2022-08-21T04:33:40;49.30;;;19.48;;
31224;SDS011;17847;31.524;74.366;2022-08-21T04:36:37;57.28;;;23.85;;
31224;SDS011;17847;31.524;74.366;2022-08-21T04:39:52;51.63;;;22.58;;
31224;SDS011;17847;31.524;74.366;2022-08-21T04:42:53;40.25;;;20.92;;
31224;SDS011;17847;31.524;74.366;2022-08-21T04:46:10;40.77;;;21.57;;
31224;SDS011;17847;31.524;74.366;2022-08-21T04:49:12;38.90;;;23.10;;
31224;SDS011;17847;31.524;74.366;2022-08-21T04:52:27;54.47;;;24.38;;
31224;SDS011;17847;31.524;74.366;2022-08-21T04:55:25;46.97;;;24.00;;
31224;SDS011;17847;31.524;74.366;2022-08-21T04:58:41;50.72;;;25.52;;
31224;SDS011;17847;31.524;74.366;2022-08-21T05:04:56;46.35;;;22.25;;
31224;SDS011;17847;31.524;74.366;2022-08-21T05:07:52;39.85;;;21.20;;
31224;SDS011;17847;31.524;74.366;2022-08-21T05:11:09;40.42;;;20.33;;
31224;SDS011;17847;31.524;74.366;2022-08-21T05:14:05;38.70;;;19.40;;
31224;SDS011;17847;31.524;74.366;2022-08-21T05:17:21;42.22;;;22.17;;
31224;SDS011;17847;31.524;74.366;2022-08-21T05:20:28;41.53;;;23.20;;
31224;SDS011;17847;31.524;74.366;2022-08-21T05:23:43;40.17;;;21.90;;
31224;SDS011;17847;31.524;74.366;2022-08-21T05:26:46;39.03;;;19.17;;
31224;SDS011;17847;31.524;74.366;2022-08-21T05:30:02;36.63;;;16.50;;
31224;SDS011;17847;31.524;74.366;2022-08-21T05:33:00;38.43;;;17.73;;
31224;SDS011;17847;31.524;74.366;2022-08-21T05:36:18;41.40;;;21.92;;
31224;SDS011;17847;31.524;74.366;2022-08-21T05:39:13;40.08;;;21.15;;
31224;SDS011;17847;31.524;74.366;2022-08-21T05:42:52;40.10;;;22.63;;
31224;SDS011;17847;31.524;74.366;2022-08-21T05:45:56;57.28;;;28.23;;
31224;SDS011;17847;31.524;74.366;2022-08-21T05:49:04;54.08;;;29.23;;
31224;SDS011;17847;31.524;74.366;2022-08-21T05:52:17;51.88;;;28.13;;
31224;SDS011;17847;31.524;74.366;2022-08-21T05:55:35;53.40;;;26.67;;
31224;SDS011;17847;31.524;74.366;2022-08-21T05:58:38;55.05;;;29.45;;
31224;SDS011;17847;31.524;74.366;2022-08-21T06:01:53;61.83;;;27.63;;
31224;SDS011;17847;31.524;74.366;2022-08-21T06:04:49;44.83;;;26.35;;
31224;SDS011;17847;31.524;74.366;2022-08-21T06:08:04;45.17;;;25.55;;
31224;SDS011;17847;31.524;74.366;2022-08-21T06:11:01;41.17;;;23.52;;
31224;SDS011;17847;31.524;74.366;2022-08-21T06:14:19;39.65;;;22.35;;
31224;SDS011;17847;31.524;74.366;2022-08-21T06:17:15;36.15;;;22.42;;
31224;SDS011;17847;31.524;74.366;2022-08-21T06:20:30;31.52;;;19.02;;
31224;SDS011;17847;31.524;74.366;2022-08-21T06:23:34;34.55;;;17.83;;
31224;SDS011;17847;31.524;74.366;2022-08-21T06:26:42;32.90;;;17.33;;
31224;SDS011;17847;31.524;74.366;2022-08-21T06:29:45;40.15;;;18.52;;
31224;SDS011;17847;31.524;74.366;2022-08-21T06:33:01;35.58;;;16.80;;
31224;SDS011;17847;31.524;74.366;2022-08-21T06:35:57;30.33;;;15.47;;
31224;SDS011;17847;31.524;74.366;2022-08-21T06:39:12;31.52;;;14.38;;
31224;SDS011;17847;31.524;74.366;2022-08-21T06:42:23;38.15;;;15.57;;
31224;SDS011;17847;31.524;74.366;2022-08-21T06:45:33;28.52;;;13.75;;
31224;SDS011;17847;31.524;74.366;2022-08-21T06:48:36;32.35;;;14.55;;
31224;SDS011;17847;31.524;74.366;2022-08-21T06:51:44;26.83;;;14.13;;
31224;SDS011;17847;31.524;74.366;2022-08-21T06:55:00;30.15;;;12.70;;
31224;SDS011;17847;31.524;74.366;2022-08-21T06:57:56;26.17;;;11.30;;
31224;SDS011;17847;31.524;74.366;2022-08-21T07:01:11;21.27;;;10.23;;
31224;SDS011;17847;31.524;74.366;2022-08-21T07:04:17;21.15;;;8.57;;
31224;SDS011;17847;31.524;74.366;2022-08-21T07:07:26;20.63;;;9.20;;
31224;SDS011;17847;31.524;74.366;2022-08-21T07:10:28;21.60;;;9.23;;
31224;SDS011;17847;31.524;74.366;2022-08-21T07:13:37;23.13;;;8.45;;
31224;SDS011;17847;31.524;74.366;2022-08-21T07:16:40;22.25;;;9.65;;
31224;SDS011;17847;31.524;74.366;2022-08-21T07:19:57;24.95;;;8.18;;
31224;SDS011;17847;31.524;74.366;2022-08-21T07:22:53;21.45;;;8.65;;
31224;SDS011;17847;31.524;74.366;2022-08-21T07:26:11;22.45;;;8.45;;
31224;SDS011;17847;31.524;74.366;2022-08-21T07:29:08;15.45;;;8.02;;
31224;SDS011;17847;31.524;74.366;2022-08-21T07:32:23;20.60;;;8.43;;
31224;SDS011;17847;31.524;74.366;2022-08-21T07:35:26;16.73;;;8.07;;
31224;SDS011;17847;31.524;74.366;2022-08-21T07:38:34;25.42;;;10.05;;
31224;SDS011;17847;31.524;74.366;2022-08-21T07:41:39;32.15;;;9.10;;
31224;SDS011;17847;31.524;74.366;2022-08-21T07:44:54;21.73;;;8.82;;
31224;SDS011;17847;31.524;74.366;2022-08-21T07:47:51;20.05;;;8.57;;
31224;SDS011;17847;31.524;74.366;2022-08-21T07:51:08;20.45;;;9.82;;
31224;SDS011;17847;31.524;74.366;2022-08-21T07:54:13;16.20;;;8.82;;
31224;SDS011;17847;31.524;74.366;2022-08-21T07:57:32;23.52;;;8.80;;
31224;SDS011;17847;31.524;74.366;2022-08-21T08:00:28;23.45;;;7.85;;
31224;SDS011;17847;31.524;74.366;2022-08-21T08:03:44;20.85;;;9.55;;
31224;SDS011;17847;31.524;74.366;2022-08-21T08:06:42;19.20;;;9.32;;
31224;SDS011;17847;31.524;74.366;2022-08-21T08:09:57;18.13;;;7.53;;
31224;SDS011;17847;31.524;74.366;2022-08-21T08:12:54;19.02;;;8.45;;
31224;SDS011;17847;31.524;74.366;2022-08-21T08:16:09;24.92;;;10.70;;
31224;SDS011;17847;31.524;74.366;2022-08-21T08:19:05;17.23;;;7.57;;
31224;SDS011;17847;31.524;74.366;2022-08-21T08:22:21;19.00;;;7.60;;
31224;SDS011;17847;31.524;74.366;2022-08-21T08:25:18;13.80;;;6.57;;
31224;SDS011;17847;31.524;74.366;2022-08-21T08:28:40;26.17;;;7.95;;
31224;SDS011;17847;31.524;74.366;2022-08-21T08:31:43;22.85;;;8.00;;
31224;SDS011;17847;31.524;74.366;2022-08-21T08:34:58;17.10;;;8.10;;
31224;SDS011;17847;31.524;74.366;2022-08-21T08:37:56;19.23;;;8.00;;
31224;SDS011;17847;31.524;74.366;2022-08-21T08:41:19;25.02;;;7.85;;
31224;SDS011;17847;31.524;74.366;2022-08-21T08:44:23;16.73;;;8.02;;
31224;SDS011;17847;31.524;74.366;2022-08-21T08:47:40;15.88;;;6.70;;
31224;SDS011;17847;31.524;74.366;2022-08-21T08:50:47;21.83;;;8.98;;
31224;SDS011;17847;31.524;74.366;2022-08-21T08:54:07;22.27;;;8.80;;
31224;SDS011;17847;31.524;74.366;2022-08-21T08:56:54;25.35;;;7.72;;
31224;SDS011;17847;31.524;74.366;2022-08-21T09:02:21;19.40;;;8.07;;
31224;SDS011;17847;31.524;74.366;2022-08-21T09:05:24;20.95;;;10.95;;
31224;SDS011;17847;31.524;74.366;2022-08-21T09:11:53;22.95;;;10.05;;
31224;SDS011;17847;31.524;74.366;2022-08-21T09:14:58;19.67;;;8.23;;
31224;SDS011;17847;31.524;74.366;2022-08-21T09:27:24;21.30;;;7.53;;
31224;SDS011;17847;31.524;74.366;2022-08-21T09:30:12;25.00;;;8.40;;
31224;SDS011;17847;31.524;74.366;2022-08-21T09:32:55;16.85;;;8.73;;
31224;SDS011;17847;31.524;74.366;2022-08-21T09:35:51;24.27;;;11.57;;
31224;SDS011;17847;31.524;74.366;2022-08-21T09:38:36;21.33;;;13.13;;
31224;SDS011;17847;31.524;74.366;2022-08-21T09:41:33;26.60;;;13.77;;
31224;SDS011;17847;31.524;74.366;2022-08-21T09:44:12;20.67;;;12.70;;
31224;SDS011;17847;31.524;74.366;2022-08-21T09:47:07;29.38;;;12.55;;
31224;SDS011;17847;31.524;74.366;2022-08-21T09:49:51;32.30;;;11.60;;
31224;SDS011;17847;31.524;74.366;2022-08-21T09:52:46;28.40;;;11.38;;
31224;SDS011;17847;31.524;74.366;2022-08-21T09:55:59;26.42;;;11.30;;
31224;SDS011;17847;31.524;74.366;2022-08-21T10:02:26;17.40;;;10.23;;
31224;SDS011;17847;31.524;74.366;2022-08-21T10:05:26;17.05;;;9.13;;
31224;SDS011;17847;31.524;74.366;2022-08-21T10:08:02;19.05;;;9.90;;
31224;SDS011;17847;31.524;74.366;2022-08-21T10:11:13;23.20;;;10.15;;
31224;SDS011;17847;31.524;74.366;2022-08-21T10:13:53;16.52;;;10.07;;
31224;SDS011;17847;31.524;74.366;2022-08-21T10:35:45;19.15;;;10.00;;
31224;SDS011;17847;31.524;74.366;2022-08-21T10:48:14;20.85;;;10.35;;
31224;SDS011;17847;31.524;74.366;2022-08-21T10:54:19;24.07;;;9.73;;
31224;SDS011;17847;31.524;74.366;2022-08-21T11:00:23;18.85;;;9.15;;
31224;SDS011;17847;31.524;74.366;2022-08-21T11:03:47;21.45;;;8.35;;
31224;SDS011;17847;31.524;74.366;2022-08-21T11:06:51;24.63;;;8.68;;
31224;SDS011;17847;31.524;74.366;2022-08-21T11:09:54;21.75;;;8.07;;
31224;SDS011;17847;31.524;74.366;2022-08-21T11:12:49;16.55;;;7.95;;
31224;SDS011;17847;31.524;74.366;2022-08-21T11:15:43;16.52;;;8.02;;
31224;SDS011;17847;31.524;74.366;2022-08-21T11:27:59;22.98;;;7.53;;
31224;SDS011;17847;31.524;74.366;2022-08-21T11:53:24;16.83;;;6.78;;
31224;SDS011;17847;31.524;74.366;2022-08-21T11:56:39;15.98;;;5.95;;
31224;SDS011;17847;31.524;74.366;2022-08-21T12:02:28;17.20;;;7.60;;
31224;SDS011;17847;31.524;74.366;2022-08-21T12:05:31;18.20;;;7.10;;
31224;SDS011;17847;31.524;74.366;2022-08-21T12:08:31;22.20;;;6.68;;
31224;SDS011;17847;31.524;74.366;2022-08-21T12:14:13;21.67;;;6.70;;
31224;SDS011;17847;31.524;74.366;2022-08-21T12:17:03;16.63;;;6.55;;
31224;SDS011;17847;31.524;74.366;2022-08-21T12:20:15;19.60;;;6.30;;
31224;SDS011;17847;31.524;74.366;2022-08-21T12:26:01;14.82;;;5.93;;
31224;SDS011;17847;31.524;74.366;2022-08-21T12:29:02;17.85;;;6.25;;
31224;SDS011;17847;31.524;74.366;2022-08-21T12:32:18;13.05;;;5.72;;
31224;SDS011;17847;31.524;74.366;2022-08-21T12:35:21;24.55;;;5.32;;
31224;SDS011;17847;31.524;74.366;2022-08-21T12:38:39;16.92;;;6.05;;
31224;SDS011;17847;31.524;74.366;2022-08-21T12:41:48;19.85;;;5.72;;
31224;SDS011;17847;31.524;74.366;2022-08-21T12:44:49;16.73;;;7.00;;
31224;SDS011;17847;31.524;74.366;2022-08-21T12:47:46;20.65;;;6.53;;
31224;SDS011;17847;31.524;74.366;2022-08-21T12:56:54;17.48;;;7.70;;
31224;SDS011;17847;31.524;74.366;2022-08-21T12:59:44;18.20;;;6.15;;
31224;SDS011;17847;31.524;74.366;2022-08-21T13:02:35;20.35;;;6.68;;
31224;SDS011;17847;31.524;74.366;2022-08-21T13:05:33;19.27;;;6.22;;
31224;SDS011;17847;31.524;74.366;2022-08-21T13:08:30;18.23;;;6.55;;
31224;SDS011;17847;31.524;74.366;2022-08-21T13:11:29;16.73;;;7.30;;
31224;SDS011;17847;31.524;74.366;2022-08-21T13:14:12;15.73;;;6.75;;
31224;SDS011;17847;31.524;74.366;2022-08-21T13:17:25;21.45;;;7.05;;
31224;SDS011;17847;31.524;74.366;2022-08-21T13:20:25;19.67;;;6.78;;
31224;SDS011;17847;31.524;74.366;2022-08-21T13:23:23;22.67;;;7.90;;
31224;SDS011;17847;31.524;74.366;2022-08-21T13:26:17;24.27;;;8.77;;
31224;SDS011;17847;31.524;74.366;2022-08-21T13:29:09;22.48;;;8.38;;
31224;SDS011;17847;31.524;74.366;2022-08-21T13:31:52;25.52;;;8.05;;
31224;SDS011;17847;31.524;74.366;2022-08-21T13:34:54;21.63;;;8.65;;
31224;SDS011;17847;31.524;74.366;2022-08-21T13:37:38;21.35;;;10.23;;
31224;SDS011;17847;31.524;74.366;2022-08-21T13:40:31;21.65;;;7.95;;
31224;SDS011;17847;31.524;74.366;2022-08-21T13:43:22;17.35;;;8.77;;
31224;SDS011;17847;31.524;74.366;2022-08-21T13:46:14;23.50;;;8.40;;
31224;SDS011;17847;31.524;74.366;2022-08-21T13:49:00;20.15;;;8.73;;
31224;SDS011;17847;31.524;74.366;2022-08-21T13:51:50;22.42;;;8.25;;
31224;SDS011;17847;31.524;74.366;2022-08-21T13:54:37;19.70;;;9.30;;
31224;SDS011;17847;31.524;74.366;2022-08-21T13:57:29;17.55;;;8.32;;
31224;SDS011;17847;31.524;74.366;2022-08-21T14:00:17;18.92;;;8.32;;
31224;SDS011;17847;31.524;74.366;2022-08-21T14:03:37;24.33;;;7.93;;
31224;SDS011;17847;31.524;74.366;2022-08-21T14:06:33;22.05;;;8.85;;
31224;SDS011;17847;31.524;74.366;2022-08-21T14:09:34;20.17;;;8.85;;
31224;SDS011;17847;31.524;74.366;2022-08-21T14:12:41;20.27;;;8.45;;
31224;SDS011;17847;31.524;74.366;2022-08-21T14:15:26;32.40;;;8.68;;
31224;SDS011;17847;31.524;74.366;2022-08-21T14:18:18;21.85;;;8.60;;
31224;SDS011;17847;31.524;74.366;2022-08-21T14:21:07;24.08;;;8.73;;
31224;SDS011;17847;31.524;74.366;2022-08-21T14:30:29;20.98;;;8.77;;
31224;SDS011;17847;31.524;74.366;2022-08-21T14:33:31;22.65;;;9.35;;
31224;SDS011;17847;31.524;74.366;2022-08-21T14:36:21;24.20;;;9.13;;
31224;SDS011;17847;31.524;74.366;2022-08-21T14:39:03;27.13;;;8.75;;
31224;SDS011;17847;31.524;74.366;2022-08-21T14:41:58;24.73;;;9.85;;
31224;SDS011;17847;31.524;74.366;2022-08-21T14:44:45;33.15;;;10.77;;
31224;SDS011;17847;31.524;74.366;2022-08-21T14:47:36;22.85;;;9.85;;
31224;SDS011;17847;31.524;74.366;2022-08-21T14:50:21;22.40;;;9.30;;
31224;SDS011;17847;31.524;74.366;2022-08-21T14:53:15;20.90;;;9.05;;
31224;SDS011;17847;31.524;74.366;2022-08-21T14:56:03;23.35;;;9.63;;
31224;SDS011;17847;31.524;74.366;2022-08-21T14:58:52;23.60;;;9.52;;
31224;SDS011;17847;31.524;74.366;2022-08-21T15:01:38;24.42;;;10.60;;
31224;SDS011;17847;31.524;74.366;2022-08-21T15:04:33;27.67;;;9.98;;
31224;SDS011;17847;31.524;74.366;2022-08-21T15:07:17;20.45;;;9.35;;
31224;SDS011;17847;31.524;74.366;2022-08-21T15:10:13;22.63;;;10.13;;
31224;SDS011;17847;31.524;74.366;2022-08-21T15:12:58;26.95;;;10.75;;
31224;SDS011;17847;31.524;74.366;2022-08-21T15:15:55;24.60;;;9.82;;
31224;SDS011;17847;31.524;74.366;2022-08-21T15:18:39;21.17;;;10.35;;
31224;SDS011;17847;31.524;74.366;2022-08-21T15:21:29;21.13;;;9.90;;
31224;SDS011;17847;31.524;74.366;2022-08-21T15:24:12;30.17;;;11.07;;
31224;SDS011;17847;31.524;74.366;2022-08-21T15:27:02;20.63;;;10.25;;
31224;SDS011;17847;31.524;74.366;2022-08-21T15:29:49;27.45;;;10.57;;
31224;SDS011;17847;31.524;74.366;2022-08-21T15:32:41;28.92;;;11.07;;
31224;SDS011;17847;31.524;74.366;2022-08-21T15:35:23;35.75;;;13.10;;
31224;SDS011;17847;31.524;74.366;2022-08-21T15:40:57;29.17;;;11.43;;
31224;SDS011;17847;31.524;74.366;2022-08-21T15:43:56;37.20;;;12.18;;
31224;SDS011;17847;31.524;74.366;2022-08-21T15:49:30;28.75;;;11.05;;
31224;SDS011;17847;31.524;74.366;2022-08-21T15:52:15;28.42;;;10.95;;
31224;SDS011;17847;31.524;74.366;2022-08-21T15:55:09;31.70;;;11.93;;
31224;SDS011;17847;31.524;74.366;2022-08-21T15:57:54;25.00;;;11.60;;
31224;SDS011;17847;31.524;74.366;2022-08-21T16:00:44;24.77;;;11.65;;
31224;SDS011;17847;31.524;74.366;2022-08-21T16:03:21;27.42;;;11.38;;
31224;SDS011;17847;31.524;74.366;2022-08-21T16:06:16;23.77;;;10.98;;
31224;SDS011;17847;31.524;74.366;2022-08-21T16:09:18;25.65;;;11.23;;
31224;SDS011;17847;31.524;74.366;2022-08-21T16:12:19;25.27;;;10.90;;
31224;SDS011;17847;31.524;74.366;2022-08-21T16:15:20;33.00;;;11.52;;
31224;SDS011;17847;31.524;74.366;2022-08-21T16:18:17;23.73;;;11.50;;
31224;SDS011;17847;31.524;74.366;2022-08-21T16:21:14;33.08;;;12.20;;
31224;SDS011;17847;31.524;74.366;2022-08-21T16:24:09;29.02;;;11.93;;
31224;SDS011;17847;31.524;74.366;2022-08-21T16:26:45;28.75;;;12.70;;
31224;SDS011;17847;31.524;74.366;2022-08-21T16:29:46;32.00;;;15.40;;
31224;SDS011;17847;31.524;74.366;2022-08-21T16:32:23;31.35;;;14.77;;
31224;SDS011;17847;31.524;74.366;2022-08-21T16:35:19;35.83;;;15.85;;
31224;SDS011;17847;31.524;74.366;2022-08-21T16:37:56;46.58;;;16.92;;
31224;SDS011;17847;31.524;74.366;2022-08-21T16:40:51;35.80;;;15.50;;
31224;SDS011;17847;31.524;74.366;2022-08-21T16:43:28;32.53;;;14.80;;
31224;SDS011;17847;31.524;74.366;2022-08-21T16:46:24;40.05;;;16.38;;
31224;SDS011;17847;31.524;74.366;2022-08-21T16:49:08;38.40;;;14.65;;
31224;SDS011;17847;31.524;74.366;2022-08-21T16:51:57;34.60;;;14.15;;
31224;SDS011;17847;31.524;74.366;2022-08-21T16:54:39;34.58;;;14.32;;
31224;SDS011;17847;31.524;74.366;2022-08-21T16:57:30;30.70;;;13.25;;
31224;SDS011;17847;31.524;74.366;2022-08-21T17:00:13;28.38;;;11.75;;
31224;SDS011;17847;31.524;74.366;2022-08-21T17:03:11;26.80;;;10.82;;
31224;SDS011;17847;31.524;74.366;2022-08-21T17:05:52;26.88;;;10.93;;
31224;SDS011;17847;31.524;74.366;2022-08-21T17:08:50;22.90;;;9.63;;
31224;SDS011;17847;31.524;74.366;2022-08-21T17:11:36;22.17;;;8.73;;
31224;SDS011;17847;31.524;74.366;2022-08-21T17:14:35;23.10;;;8.77;;
31224;SDS011;17847;31.524;74.366;2022-08-21T17:17:11;29.23;;;9.85;;
31224;SDS011;17847;31.524;74.366;2022-08-21T17:20:07;19.77;;;8.55;;
31224;SDS011;17847;31.524;74.366;2022-08-21T17:23:03;16.30;;;8.35;;
31224;SDS011;17847;31.524;74.366;2022-08-21T17:25:58;22.60;;;8.75;;
31224;SDS011;17847;31.524;74.366;2022-08-21T17:28:54;22.63;;;8.27;;
31224;SDS011;17847;31.524;74.366;2022-08-21T17:31:37;24.17;;;9.52;;
31224;SDS011;17847;31.524;74.366;2022-08-21T17:34:27;40.17;;;13.38;;
31224;SDS011;17847;31.524;74.366;2022-08-21T17:37:10;34.50;;;12.07;;
31224;SDS011;17847;31.524;74.366;2022-08-21T17:39:58;25.67;;;11.43;;
31224;SDS011;17847;31.524;74.366;2022-08-21T17:42:42;30.23;;;11.98;;
31224;SDS011;17847;31.524;74.366;2022-08-21T17:45:40;18.73;;;10.02;;
31224;SDS011;17847;31.524;74.366;2022-08-21T17:48:24;25.23;;;9.98;;
31224;SDS011;17847;31.524;74.366;2022-08-21T17:51:14;28.10;;;10.30;;
31224;SDS011;17847;31.524;74.366;2022-08-21T17:53:58;24.35;;;9.05;;
31224;SDS011;17847;31.524;74.366;2022-08-21T17:56:46;18.63;;;8.85;;
31224;SDS011;17847;31.524;74.366;2022-08-21T17:59:30;29.92;;;10.18;;
31224;SDS011;17847;31.524;74.366;2022-08-21T18:02:20;20.60;;;9.25;;
31224;SDS011;17847;31.524;74.366;2022-08-21T18:05:04;21.85;;;9.55;;
31224;SDS011;17847;31.524;74.366;2022-08-21T18:07:56;22.25;;;9.02;;
31224;SDS011;17847;31.524;74.366;2022-08-21T18:10:39;22.63;;;9.18;;
31224;SDS011;17847;31.524;74.366;2022-08-21T18:13:31;30.85;;;9.90;;
31224;SDS011;17847;31.524;74.366;2022-08-21T18:16:17;22.25;;;8.65;;
31224;SDS011;17847;31.524;74.366;2022-08-21T18:19:13;26.92;;;8.57;;
31224;SDS011;17847;31.524;74.366;2022-08-21T18:21:58;18.33;;;7.20;;
31224;SDS011;17847;31.524;74.366;2022-08-21T18:24:49;23.70;;;7.38;;
31224;SDS011;17847;31.524;74.366;2022-08-21T18:27:45;17.70;;;7.55;;
31224;SDS011;17847;31.524;74.366;2022-08-21T18:30:42;21.23;;;8.50;;
31224;SDS011;17847;31.524;74.366;2022-08-21T18:33:24;28.40;;;7.85;;
31224;SDS011;17847;31.524;74.366;2022-08-21T18:36:12;23.75;;;7.43;;
31224;SDS011;17847;31.524;74.366;2022-08-21T18:38:54;14.55;;;7.05;;
31224;SDS011;17847;31.524;74.366;2022-08-21T18:42:06;29.40;;;9.23;;
31224;SDS011;17847;31.524;74.366;2022-08-21T18:44:51;22.25;;;8.10;;
31224;SDS011;17847;31.524;74.366;2022-08-21T18:47:48;25.48;;;8.90;;
31224;SDS011;17847;31.524;74.366;2022-08-21T18:50:34;23.88;;;8.23;;
31224;SDS011;17847;31.524;74.366;2022-08-21T18:53:26;16.63;;;8.38;;
31224;SDS011;17847;31.524;74.366;2022-08-21T18:56:10;20.85;;;8.90;;
31224;SDS011;17847;31.524;74.366;2022-08-21T18:59:00;20.52;;;8.63;;
31224;SDS011;17847;31.524;74.366;2022-08-21T19:01:44;26.50;;;9.30;;
31224;SDS011;17847;31.524;74.366;2022-08-21T19:04:33;20.77;;;8.07;;
31224;SDS011;17847;31.524;74.366;2022-08-21T19:07:17;18.08;;;9.18;;
31224;SDS011;17847;31.524;74.366;2022-08-21T19:10:07;20.33;;;8.38;;
31224;SDS011;17847;31.524;74.366;2022-08-21T19:13:01;23.83;;;8.60;;
31224;SDS011;17847;31.524;74.366;2022-08-21T19:15:57;14.18;;;7.95;;
31224;SDS011;17847;31.524;74.366;2022-08-21T19:18:42;22.52;;;9.10;;
31224;SDS011;17847;31.524;74.366;2022-08-21T19:21:32;15.77;;;7.70;;